Mario Martinez Classic - WILLIAMS CA 67.9

Station: WILLIAMS CA 67.9 - T Race

Distance: 67.9 Miles

Release: 15-Sep-2020 09:30

Weather Release:    Arrival: CLEAR

Wind at Release: 05     Wind at Arrival: 05

Temp at Release: °    Temp at Arrival: °

Lofts: 62

Birds: 175

Clocked: 174

Good Luck to Everyone!
Drops Pos Breeder Pigeon Name Color Sex Ent Arrival Speed To Win Elg Pd
1 Paco Loft - CA 0083-AU20-PACO BC H 1 10:52:26.40 1449.588 00:00:00 Yes
2 Sal Perez - CA 0234-AU20-SFR BB H 1 10:52:27.90 1449.148 00:00:02 Yes
3 Tepa Sindicatos - CA 0241-AU20-SG BC H 1 10:52:28.50 1448.972 00:00:02 Yes
4 Adrian Mercado Loft - TN 33157-AU20-JEDD Maria BB H 1 10:52:28.90 1448.855 00:00:03 Yes
5 Freak Yah! - HI 0097-AU20-FIA BC H 1 10:52:29.00 1448.826 00:00:03 Yes
6 Salinas Team - CA 0243-AU20-WSJ BBWF H 1 10:52:29.50 1448.680 00:00:03 Yes
7 Hayloft - CA 0141-AU20-GSF BC H 1 10:52:30.70 1448.329 00:00:04 Yes
8 Leanos Loft - CA 1102-AU20-TCH BC H 1 10:52:31.10 1448.212 00:00:05 Yes
9 R P S Loft - CA 1104-AU20-SFR 🐎 🐴 LONE RANGER � BC H 1 10:52:31.50 1448.095 00:00:05 Yes
10 Roger Y Don Chayo - CA 0111-AU20-MAN BB H 1 10:52:31.80 1448.007 00:00:05 Yes
10 Zabedra Family Loft - CA 4882-AU20-SOC BCWF H 1 10:52:31.80 1448.007 00:00:05 Yes
12 Sotto & Saleem Loft - CA 0023-AU20-SALE BC H 1 10:52:31.90 1447.978 00:00:05 Yes
12 Salvador R / Gustavo G - CA 2589-AU20-FORT BBWF H 1 10:52:31.90 1447.978 00:00:05 Yes
14 Hayloft - CA 0160-AU20-GSF BC H 2 10:52:32.40 1447.831 00:00:06 Yes
14 Cotaloft - CA 0850-AU20-SEL La China RC H 1 10:52:32.40 1447.831 00:00:06 Yes
16 Golden State Syndicate - CA 16313-AU20-AA eL TOPACIO! BB H 1 10:52:32.80 1447.714 00:00:06 Yes
17 K/N Loft - HI 0348-AU20-LEEW BB H 1 10:52:33.30 1447.568 00:00:07 Yes
18 Ramirez Loft - TX 0079-AU20-MEX BB H 1 10:52:33.80 1447.422 00:00:07 Yes
19 El Tepetate - CA 0128-AU20-SFPC BB H 1 10:52:34.10 1447.335 00:00:08 Yes
20 Mike Cambra - CA 4887-AU20-SOC BC H 1 10:52:34.50 1447.218 00:00:08 Yes
21 Hayloft - CA 0146-AU20-GSF BB H 3 10:52:34.60 1447.188 00:00:08 Yes
21 Sotto & Saleem Loft - CA 0008-AU20-SALE BB H 2 10:52:34.60 1447.188 00:00:08 Yes
24 Isidro Vega Loft - CA 56232-AU20-ARPU BC H 1 10:52:35.40 1446.955 00:00:09 Yes
25 Tres Amigos - CA 0526-AU20-SBRP BB H 1 10:52:35.70 1446.867 00:00:09 Yes
26 Gomez & Martin Loft - CA 3011-AU20-FORT BB H 1 10:52:36.10 1446.750 00:00:10 Yes
27 Jose Barrera's Loft - CA 2012-AU20-JBL BBWF H 1 10:52:36.20 1446.721 00:00:10 Yes
28 Gene Tenbrink - CA 0209-AU20-GENE BC H 1 10:52:36.70 1446.575 00:00:10 Yes
29 Savers Pigeons Loft - CA 0405-AU20-BPRC DCPI H 1 10:52:37.10 1446.459 00:00:11 Yes
30 El Tepetate - CA 0118-AU20-SFPC BBWF H 2 10:52:37.50 1446.342 00:00:11 Yes
31 H Padilla Y Leo Gomez - CA 0709-AU20-MTZ BC H 1 10:52:37.90 1446.225 00:00:12 Yes
31 Ponce Loft - CA 1400-AU20-PONC Chucky DC H 1 10:52:37.90 1446.225 00:00:12 Yes
33 Palomo Loft - CA 1006-AU20-SFPC BB H 1 10:52:38.20 1446.138 00:00:12 Yes
34 Nanez Family Loft - WI 0176-AU20-NANZ BB H 1 10:52:38.80 1445.963 00:00:12 Yes
35 Steve Paine - CA 0263-AU20-HOUS BC H 1 10:52:39.20 1445.846 00:00:13 Yes
36 Hugo Family Loft - IL 0023-AU20-HRFL BB H 1 10:52:39.30 1445.817 00:00:13 Yes
37 Herrera Loft - CA 0187-AU20-MAN BBWF H 1 10:52:39.80 1445.671 00:00:13 Yes
38 Tres Amigos - CA 0530-AU20-SBRP BBWF H 2 10:52:40.10 1445.584 00:00:14 Yes
39 G D L🐦.L O F T πŸ•ŠπŸ•ŠπŸ•Š - CA 1611-AU20-JAPA Miss Gdl BB H 1 10:52:40.60 1445.438 00:00:14 Yes
39 R Reyes Lofts - CA 2511-AU20-FORT BBWF H 1 10:52:40.60 1445.438 00:00:14 Yes
41 Larios Loft - CA 2813-AU20-FORT BB H 1 10:52:40.70 1445.409 00:00:14 Yes
42 Roger Y Don Chayo - CA 0113-AU20-MAN BB H 2 10:52:41.90 1445.059 00:00:16 Yes
43 Renato Reg Loft - CA 0512-AU20-TCH BC H 1 10:52:42.40 1444.914 00:00:16 Yes
44 Vm Backyard Loft - CA 0530-AU20-TCH DC H 1 10:52:42.50 1444.885 00:00:16 Yes
44 Jacks Galaxy - FL 0005-AU20-XXX admiral x 673 BB H 1 10:52:42.50 1444.885 00:00:16 Yes
46 Ponce Loft - CA 1401-AU20-PONC El Numero 1 BC H 2 10:52:42.60 1444.856 00:00:16 Yes
47 H Padilla Y Leo Gomez - CA 0726-AU20-MTZ BB H 2 10:52:43.10 1444.710 00:00:17 Yes
48 Isidro Vega Loft - CA 56225-AU20-ARPU BC H 2 10:52:43.70 1444.535 00:00:17 Yes
48 Arturo Serratos Loft - CA 16702-AU20-JEDD BB H 1 10:52:43.70 1444.535 00:00:17 Yes
50 R Reyes Lofts - CA 1554-AU20-MAN BC H 2 10:52:44.00 1444.448 00:00:18 Yes
52 G D L🐦.L O F T πŸ•ŠπŸ•ŠπŸ•Š - CA 1620-AU20-JAPA Money Maker Gdl. BB H 2 10:52:45.00 1444.157 00:00:19 Yes
53 Aguilar Loft - CA 0701-AU20-HAN BB H 1 10:52:45.60 1443.983 00:00:19 Yes
54 Isidro Vega Loft - CA 56247-AU20-ARPU BC H 3 10:52:45.90 1443.895 00:00:20 Yes
55 Nevarez Loft - CA 0206-AU20-NEVA BC H 1 10:52:46.40 1443.750 00:00:20 Yes
56 Garibay Gomez Loft - CA 20306-AU20-OAK THOR BC C 1 10:52:46.90 1443.605 00:00:21 Yes
57 Beto's Loft - CA 2004-AU20-JBL DC H 1 10:52:47.00 1443.576 00:00:21 Yes
58 Savers Pigeons Loft - CA 0411-AU20-BPRC BB H 2 10:52:47.30 1443.488 00:00:21 Yes
59 Hugo Family Loft - IL 0022-AU20-HRFL BB H 2 10:52:47.80 1443.343 00:00:21 Yes
59 Beto's Loft - CA 2010-AU20-JBL BBSP H 2 10:52:47.80 1443.343 00:00:21 Yes
61 Sal Perez - CA 0223-AU20-SFR BB H 2 10:52:50.30 1442.617 00:00:24 Yes
62 John V. Partridge - CA 2047-AU20-PASO Slow Motion SLT H 1 10:52:51.10 1442.385 00:00:25 Yes
63 Walters Loft - NJ 56451-AU20-ARPU BB H 1 10:53:03.00 1438.940 00:00:37 Yes
64 Jacks Galaxy - FL 0012-AU20-XXX 45 x 39 DC H 2 10:53:04.10 1438.623 00:00:38 Yes
65 Whell's Loft - CA 16322-AU20-AA β€œSprinter” BC H 1 10:53:04.90 1438.392 00:00:39 Yes
66 Tepa Sindicatos - CA 0243-AU20-SG BB H 2 10:53:05.70 1438.161 00:00:39 Yes
67 Leanos Loft - CA 1123-AU20-TCH BC H 2 10:53:06.20 1438.017 00:00:40 Yes
68 Lito Maniego Loft - CA 0003-AU20-RLDI BC H 1 10:53:07.30 1437.700 00:00:41 Yes
69 Luis Gante - CA 1124-AU20-SFPC SILV H 1 10:53:07.80 1437.556 00:00:41 Yes
70 Jamie Ramirez - CA 0038-AU20-CCU BB H 1 10:53:08.50 1437.354 00:00:42 Yes
71 Jesus Avalos - CA 1485-AU20-TULE BB H 1 10:53:11.10 1436.605 00:00:45 Yes
72 L Fernandez Loft - CA 0537-AU20-TCH RC H 1 10:53:13.00 1436.058 00:00:47 Yes
73 Tres Amigos - CA 2544-AU20-COM BB H 3 10:53:13.50 1435.915 00:00:47 Yes
74 Larios Loft - CA 2708-AU20-FORT BC H 2 10:53:13.90 1435.800 00:00:48 Yes
75 Jesus Avalos - CA 1417-AU20-TULE BB H 2 10:53:16.30 1435.110 00:00:50 Yes
76 John V. Partridge - CA 2044-AU20-PASO Three Times a Lady BC H 2 10:53:16.70 1434.995 00:00:50 Yes
77 Zabedra Family Loft - CA 1522-AU20-TCH BB H 2 10:53:17.40 1434.794 00:00:51 Yes
78 Renato Reg Loft - CA 0522-AU20-TCH BC H 2 10:53:17.90 1434.651 00:00:51 Yes
79 Herrera Loft - CA 0190-AU20-MAN BB H 2 10:53:18.40 1434.507 00:00:52 Yes
80 Thunder Birds Breeding Loft - TX 80113-AU20-ARPU Kleine's H-T BC C 1 10:53:19.30 1434.249 00:00:53 Yes
81 Walters Loft - NJ 56408-AU20-ARPU RC H 2 10:53:21.40 1433.647 00:00:55 Yes
81 Ramirez Loft - TX 22837-AU20-JEDD BB H 2 10:53:21.40 1433.647 00:00:55 Yes
83 Ramirez Loft - TX 22835-AU20-JEDD BB H 3 10:53:23.40 1433.074 00:00:57 Yes
84 Hayloft - CA 0317-AU20-GSF BBWF H 4 10:53:24.40 1432.787 00:00:58 Yes
85 Tripple M Syndicate - CA 13299-AU20-ARPU BB H 1 10:53:25.10 1432.587 00:00:59 Yes
86 Gomez & Martin Loft - CA 3049-AU20-FORT BB H 2 10:53:25.60 1432.444 00:00:59 Yes
87 Beto's Loft - CA 2021-AU20-JBL BB H 3 10:53:27.20 1431.986 00:01:01 Yes
88 Golden State Syndicate - CA 2618-AU20-MTZ eL Maniago! BB H 2 10:53:28.40 1431.643 00:01:02 Yes
89 Hugo Family Loft - IL 0021-AU20-HRFL BB H 3 10:53:41.40 1427.936 00:01:15 Yes
90 Vm Backyard Loft - CA 0529-AU20-TCH BB H 2 10:53:42.40 1427.652 00:01:16 Yes
91 Ismael Franco - CA 0301-AU20-BPRC BB H 1 10:53:43.00 1427.482 00:01:17 Yes
93 Beto's Loft - CA 2009-AU20-JBL DCWF H 4 10:53:44.00 1427.197 00:01:18 Yes
93 Hurtado Family Loft - CA 0816-AU20-SEL MISS ZAMORA RC H 1 10:53:44.00 1427.197 00:01:18 Yes
95 H Padilla Y Leo Gomez - CA 0725-AU20-MTZ BB H 3 10:53:44.50 1427.055 00:01:18 Yes
96 Herrera Loft - CA 0186-AU20-MAN BB H 3 10:53:44.80 1426.970 00:01:18 Yes
97 Castellanos Family Loft - CA 0813-AU20-HAN BBWF H 1 10:53:45.30 1426.828 00:01:19 Yes
97 H Padilla Y Leo Gomez - CA 0511-AU20-SFPC BC H 4 10:53:45.30 1426.828 00:01:19 Yes
99 H Padilla Y Leo Gomez - CA 0508-AU20-SFPC BB H 5 10:53:45.60 1426.743 00:01:19 Yes
100 Herrera Loft - CA 0180-AU20-MAN BBWF H 4 10:53:46.20 1426.573 00:01:20 Yes
101 Hurtado Family Loft - CA 0821-AU20-SEL SUPER. 21 BB H 2 10:53:46.30 1426.544 00:01:20 Yes
102 Mendoza / Maravilla - CA 2703-AU20-WSJ BB H 1 10:53:46.80 1426.402 00:01:20 Yes
103 Leanos Loft - CA 1124-AU20-TCH BC H 3 10:53:47.10 1426.317 00:01:21 Yes

There are 177 bird records

Note: These Race Results are unofficial and subject to change until verified by the Race Committee and declared final.

 

 


windy
Click for Forecast for 94533 from weatherUSA